createdAt,value
2023-05-04T00:00:39.562Z,6.07
2023-05-04T00:02:51.690Z,5.75
2023-05-04T00:05:03.704Z,6.07
2023-05-04T00:07:15.780Z,6.07
2023-05-04T00:09:27.875Z,6.07
2023-05-04T00:11:39.944Z,5.43
2023-05-04T00:13:52.037Z,10.59
2023-05-04T00:16:05.644Z,5.75
2023-05-04T00:18:17.694Z,5.11
2023-05-04T00:20:29.800Z,6.07
2023-05-04T00:22:42.825Z,5.75
2023-05-04T00:24:53.921Z,5.75
2023-05-04T00:27:06.921Z,6.07
2023-05-04T00:29:18.090Z,7.04
2023-05-04T00:31:30.214Z,9.30
2023-05-04T00:33:42.253Z,-1.34
2023-05-04T00:35:55.274Z,6.40
2023-05-04T00:38:06.438Z,6.07
2023-05-04T00:40:19.481Z,12.52
2023-05-04T00:42:30.638Z,6.07
2023-05-04T00:44:42.692Z,6.72
2023-05-04T00:46:54.800Z,0.92
2023-05-04T00:49:06.857Z,5.75
2023-05-04T00:51:18.998Z,11.55
2023-05-04T00:53:31.991Z,5.75
2023-05-04T00:55:43.149Z,9.94
2023-05-04T00:57:55.215Z,9.94
2023-05-04T01:00:07.545Z,5.43
2023-05-04T01:02:20.266Z,12.84
2023-05-04T01:04:31.441Z,-1.66
2023-05-04T01:06:43.501Z,5.43
2023-05-04T01:08:56.571Z,0.92
2023-05-04T01:11:08.638Z,5.43
2023-05-04T01:13:22.924Z,5.75
2023-05-04T01:15:34.116Z,5.43
2023-05-04T01:17:47.226Z,-3.27
2023-05-04T01:19:59.266Z,-0.37
2023-05-04T01:22:11.372Z,-0.05
2023-05-04T01:24:23.458Z,5.11
2023-05-04T01:26:36.499Z,11.55
2023-05-04T01:28:48.493Z,-1.34
2023-05-04T01:31:00.632Z,10.59
2023-05-04T01:33:11.828Z,-1.98
2023-05-04T01:35:24.845Z,-1.66
2023-05-04T01:37:37.844Z,4.46
2023-05-04T01:39:50.890Z,4.46
2023-05-04T01:42:02.093Z,4.46
2023-05-04T01:44:15.163Z,4.79
2023-05-04T01:46:27.257Z,5.11
2023-05-04T01:48:39.330Z,5.11
2023-05-04T01:50:51.397Z,-1.98
2023-05-04T01:53:04.465Z,4.79
2023-05-04T01:55:16.531Z,-2.63
2023-05-04T01:57:30.118Z,12.52
2023-05-04T01:59:42.234Z,5.11
2023-05-04T02:01:54.317Z,5.43
2023-05-04T02:04:06.433Z,11.55
2023-05-04T02:06:18.460Z,4.46
2023-05-04T02:08:30.548Z,-4.56
2023-05-04T02:10:44.140Z,-2.95
2023-05-04T02:12:57.785Z,4.46
2023-05-04T02:15:09.773Z,3.50
2023-05-04T02:17:25.354Z,9.62
2023-05-04T02:19:36.417Z,5.11
2023-05-04T02:21:50.412Z,-4.56
2023-05-04T02:24:01.636Z,4.14
2023-05-04T02:26:13.671Z,-2.30
2023-05-04T02:28:25.751Z,-2.30
2023-05-04T02:30:37.843Z,6.72
2023-05-04T02:32:49.971Z,4.14
2023-05-04T02:35:02.900Z,5.43
2023-05-04T02:37:14.091Z,4.46
2023-05-04T02:39:26.178Z,4.46
2023-05-04T02:41:39.730Z,4.79
2023-05-04T02:43:51.302Z,-2.63
2023-05-04T02:46:02.552Z,10.26
2023-05-04T02:48:15.429Z,4.46
2023-05-04T02:50:27.570Z,4.79
2023-05-04T02:52:38.719Z,8.33
2023-05-04T02:54:52.984Z,4.14
2023-05-04T02:55:51.748Z,-3.27
2023-05-04T02:58:03.888Z,4.14
2023-05-04T03:00:16.874Z,3.82
2023-05-04T03:02:28.131Z,4.14
2023-05-04T03:04:41.122Z,3.82
2023-05-04T03:06:52.203Z,3.50
2023-05-04T03:09:04.292Z,4.14
2023-05-04T03:11:16.370Z,3.17
2023-05-04T03:13:29.943Z,3.82
2023-05-04T03:15:42.014Z,9.30
2023-05-04T03:17:54.160Z,3.17
2023-05-04T03:20:06.589Z,-1.34
2023-05-04T03:22:18.280Z,4.14
2023-05-04T03:24:30.347Z,3.82
2023-05-04T03:26:42.426Z,4.14
2023-05-04T03:28:54.509Z,12.20
2023-05-04T03:31:06.599Z,-3.59
2023-05-04T03:33:18.718Z,-0.37
2023-05-04T03:35:30.748Z,3.82
2023-05-04T03:37:44.245Z,3.82
2023-05-04T03:39:56.339Z,7.36
2023-05-04T03:42:07.882Z,8.65
2023-05-04T03:44:19.127Z,9.94
2023-05-04T03:46:31.281Z,4.14
2023-05-04T03:48:43.251Z,3.82
2023-05-04T03:50:55.317Z,-4.88
2023-05-04T03:53:08.373Z,3.82
2023-05-04T03:55:21.035Z,3.82
2023-05-04T03:57:33.086Z,4.79
2023-05-04T03:59:45.172Z,3.50
2023-05-04T04:01:58.926Z,10.91
2023-05-04T04:04:09.354Z,2.53
2023-05-04T04:06:21.442Z,3.82
2023-05-04T04:08:33.512Z,9.94
2023-05-04T04:10:45.589Z,4.14
2023-05-04T04:12:57.687Z,0.92
2023-05-04T04:15:09.750Z,2.21
2023-05-04T04:17:22.816Z,3.50
2023-05-04T04:19:35.400Z,2.85
2023-05-04T04:21:48.395Z,4.14
2023-05-04T04:23:59.577Z,3.17
2023-05-04T04:26:11.708Z,-0.37
2023-05-04T04:28:23.750Z,4.14
2023-05-04T04:30:35.814Z,4.46
2023-05-04T04:32:48.842Z,3.82
2023-05-04T04:34:59.976Z,4.46
2023-05-04T04:37:12.059Z,10.91
2023-05-04T04:39:24.226Z,4.46
2023-05-04T04:41:36.496Z,4.46
2023-05-04T04:43:48.596Z,4.46
2023-05-04T04:46:00.721Z,4.79
2023-05-04T04:48:12.778Z,4.14
2023-05-04T04:50:27.342Z,4.14
2023-05-04T04:52:38.449Z,4.79
2023-05-04T04:54:51.083Z,4.46
2023-05-04T04:57:02.602Z,12.84
2023-05-04T04:59:15.553Z,4.79
2023-05-04T05:01:26.867Z,4.79
2023-05-04T05:03:39.884Z,4.46
2023-05-04T05:05:52.852Z,4.79
2023-05-04T05:08:04.064Z,0.92
2023-05-04T05:10:17.144Z,4.79
2023-05-04T05:12:30.791Z,4.79
2023-05-04T05:14:42.839Z,5.11
2023-05-04T05:16:55.009Z,5.11
2023-05-04T05:19:07.026Z,5.75
2023-05-04T05:21:20.492Z,0.27
2023-05-04T05:23:32.111Z,5.75
2023-05-04T05:25:43.257Z,5.43
2023-05-04T05:27:55.356Z,5.43
2023-05-04T05:30:08.429Z,5.43
2023-05-04T05:32:19.526Z,-0.69
2023-05-04T05:34:31.612Z,6.40
2023-05-04T05:36:43.666Z,6.40
2023-05-04T05:38:55.758Z,5.75
2023-05-04T05:41:07.855Z,8.33
2023-05-04T05:43:19.977Z,11.87
2023-05-04T05:45:33.020Z,3.17
2023-05-04T05:47:45.724Z,6.40
2023-05-04T05:49:57.780Z,6.72
2023-05-04T05:52:11.777Z,9.30
2023-05-04T05:54:23.479Z,2.53
2023-05-04T05:56:35.574Z,6.72
2023-05-04T05:58:48.651Z,12.52
2023-05-04T06:01:00.745Z,6.72
2023-05-04T06:03:12.899Z,13.16
2023-05-04T06:05:24.948Z,7.36
2023-05-04T06:07:37.019Z,8.65
2023-05-04T06:09:49.076Z,-0.37
2023-05-04T06:12:03.534Z,14.45
2023-05-04T06:14:15.253Z,12.20
2023-05-04T06:16:26.858Z,15.10
2023-05-04T06:18:38.924Z,7.69
2023-05-04T06:20:50.965Z,7.69
2023-05-04T06:23:03.998Z,7.69
2023-05-04T06:25:15.122Z,15.74
2023-05-04T06:27:27.196Z,0.27
2023-05-04T06:29:40.300Z,15.42
2023-05-04T06:31:52.382Z,15.74
2023-05-04T06:34:04.956Z,8.65
2023-05-04T06:36:16.515Z,8.33
2023-05-04T06:38:28.578Z,8.97
2023-05-04T06:40:40.769Z,8.33
2023-05-04T06:42:52.806Z,8.01
2023-05-04T06:45:05.784Z,8.65
2023-05-04T06:47:17.854Z,15.10
2023-05-04T06:49:29.936Z,2.53
2023-05-04T06:51:42.167Z,3.82
2023-05-04T06:53:54.229Z,9.62
2023-05-04T06:56:06.280Z,2.21
2023-05-04T06:58:18.388Z,13.16
2023-05-04T07:00:31.351Z,2.85
2023-05-04T07:02:42.587Z,1.56
2023-05-04T07:04:54.611Z,9.30
2023-05-04T07:07:06.688Z,11.87
2023-05-04T07:09:18.754Z,9.30
2023-05-04T07:11:30.834Z,9.30
2023-05-04T07:13:42.935Z,9.62
2023-05-04T07:15:55.031Z,10.26
2023-05-04T07:18:07.102Z,9.94
2023-05-04T07:20:20.053Z,10.59
2023-05-04T07:22:31.237Z,9.94
2023-05-04T07:24:44.197Z,9.30
2023-05-04T07:26:55.978Z,16.39
2023-05-04T07:29:07.451Z,8.65
2023-05-04T07:31:20.046Z,10.26
2023-05-04T07:33:31.626Z,9.94
2023-05-04T07:35:43.716Z,3.82
2023-05-04T07:37:55.762Z,3.50
2023-05-04T07:40:08.098Z,11.23
2023-05-04T07:42:19.992Z,10.26
2023-05-04T07:44:31.994Z,3.82
2023-05-04T07:46:44.097Z,10.59
2023-05-04T07:48:57.162Z,14.78
2023-05-04T07:51:09.224Z,4.46
2023-05-04T07:53:21.298Z,10.59
2023-05-04T07:55:34.374Z,10.59
2023-05-04T07:57:47.459Z,10.59
2023-05-04T07:59:59.424Z,4.46
2023-05-04T08:02:10.605Z,4.79
2023-05-04T08:04:22.699Z,10.59
2023-05-04T08:06:36.284Z,14.45
2023-05-04T08:08:48.728Z,11.23
2023-05-04T08:11:15.967Z,6.72
2023-05-04T08:13:12.656Z,18.00
2023-05-04T08:15:24.636Z,17.68
2023-05-04T08:17:38.216Z,17.03
2023-05-04T08:19:50.364Z,10.59
2023-05-04T08:22:02.421Z,6.40
2023-05-04T08:24:15.466Z,10.91
2023-05-04T08:26:27.553Z,5.43
2023-05-04T08:28:41.690Z,11.55
2023-05-04T08:30:53.986Z,5.11
2023-05-04T08:33:05.131Z,11.87
2023-05-04T08:35:17.261Z,11.23
2023-05-04T08:37:29.330Z,10.91
2023-05-04T08:39:42.265Z,10.91
2023-05-04T08:41:53.522Z,11.55
2023-05-04T08:44:06.570Z,10.59
2023-05-04T08:46:18.708Z,11.23
2023-05-04T08:48:31.604Z,12.52
2023-05-04T08:50:42.813Z,6.72
2023-05-04T08:52:54.895Z,11.87
2023-05-04T08:55:07.002Z,11.87
2023-05-04T08:57:19.924Z,15.74
2023-05-04T08:59:31.094Z,11.55
2023-05-04T09:01:43.191Z,12.20
2023-05-04T09:03:55.368Z,8.97
2023-05-04T09:06:08.341Z,11.55
2023-05-04T09:08:20.397Z,7.36
2023-05-04T09:10:32.489Z,12.52
2023-05-04T09:12:44.574Z,8.33
2023-05-04T09:14:56.980Z,12.52
2023-05-04T09:17:11.445Z,13.16
2023-05-04T09:19:22.620Z,16.71
2023-05-04T09:21:34.996Z,11.23
2023-05-04T09:23:47.110Z,11.55
2023-05-04T09:25:59.155Z,8.97
2023-05-04T09:28:11.221Z,7.36
2023-05-04T09:30:23.309Z,7.69
2023-05-04T09:32:35.403Z,12.84
2023-05-04T09:34:47.456Z,12.84
2023-05-04T09:36:59.562Z,13.16
2023-05-04T09:39:12.130Z,12.20
2023-05-04T09:41:26.077Z,13.16
2023-05-04T09:43:37.265Z,13.16
2023-05-04T09:45:50.350Z,13.81
2023-05-04T09:48:02.538Z,13.49
2023-05-04T09:50:14.825Z,17.35
2023-05-04T09:52:26.598Z,10.26
2023-05-04T09:54:38.655Z,11.23
2023-05-04T09:56:51.697Z,13.16
2023-05-04T09:59:03.851Z,14.78
2023-05-04T10:01:17.454Z,13.49
2023-05-04T10:03:29.494Z,17.35
2023-05-04T10:05:42.568Z,14.13
2023-05-04T10:07:54.678Z,13.81
2023-05-04T10:10:06.809Z,14.13
2023-05-04T10:12:18.880Z,17.35
2023-05-04T10:14:30.937Z,15.42
2023-05-04T10:16:43.021Z,13.49
2023-05-04T10:18:55.108Z,14.13
2023-05-04T10:21:08.105Z,14.78
2023-05-04T10:23:21.396Z,14.13
2023-05-04T10:25:31.346Z,14.78
2023-05-04T10:27:45.407Z,14.78
2023-05-04T10:29:57.465Z,14.45
2023-05-04T10:32:09.564Z,11.55
2023-05-04T10:34:21.623Z,17.68
2023-05-04T10:36:33.697Z,15.74
2023-05-04T10:38:45.785Z,12.84
2023-05-04T10:40:57.864Z,14.78
2023-05-04T10:43:09.955Z,15.10
2023-05-04T10:45:21.995Z,13.49
2023-05-04T10:47:34.114Z,16.06
2023-05-04T10:49:46.184Z,15.42
2023-05-04T10:51:59.438Z,15.42
2023-05-04T10:54:11.620Z,14.13
2023-05-04T10:56:23.685Z,18.64
2023-05-04T10:58:35.784Z,16.06
2023-05-04T11:00:47.858Z,10.59
2023-05-04T11:03:00.913Z,15.74
2023-05-04T11:05:12.036Z,12.84
2023-05-04T11:07:24.182Z,18.96
2023-05-04T11:08:24.142Z,13.16
2023-05-04T11:10:36.179Z,17.68
2023-05-04T11:12:48.824Z,18.32
2023-05-04T11:15:00.334Z,15.42
2023-05-04T11:19:24.535Z,11.23
2023-05-04T11:21:36.794Z,18.32
2023-05-04T11:23:48.658Z,11.87
2023-05-04T11:26:00.739Z,18.00
2023-05-04T11:28:14.681Z,13.49
2023-05-04T11:30:24.910Z,12.20
2023-05-04T11:32:37.049Z,18.32
2023-05-04T11:34:49.044Z,16.06
2023-05-04T11:37:01.136Z,16.06
2023-05-04T11:39:13.200Z,12.84
2023-05-04T11:41:25.317Z,19.29
2023-05-04T11:43:37.386Z,16.06
2023-05-04T11:45:49.476Z,18.64
2023-05-04T11:48:01.610Z,15.74
2023-05-04T11:50:13.791Z,16.39
2023-05-04T11:52:27.573Z,12.52
2023-05-04T11:54:38.773Z,16.39
2023-05-04T11:56:50.838Z,15.74
2023-05-04T11:59:02.943Z,15.10
2023-05-04T12:01:15.039Z,18.32
2023-05-04T12:03:43.248Z,16.06
2023-05-04T12:05:40.722Z,16.06
2023-05-04T12:07:52.733Z,15.74
2023-05-04T12:08:53.613Z,15.74
2023-05-04T12:11:05.785Z,15.74
2023-05-04T12:13:16.962Z,12.52
2023-05-04T12:15:30.053Z,16.06
2023-05-04T12:17:42.722Z,17.03
2023-05-04T12:19:54.193Z,13.49
2023-05-04T12:22:06.272Z,13.16
2023-05-04T12:24:20.272Z,12.84
2023-05-04T12:26:30.464Z,15.74
2023-05-04T12:28:42.533Z,13.16
2023-05-04T12:30:54.648Z,15.74
2023-05-04T12:33:07.704Z,15.10
2023-05-04T12:35:19.285Z,13.49
2023-05-04T12:37:30.847Z,17.35
2023-05-04T12:39:42.915Z,18.64
2023-05-04T12:41:55.012Z,16.39
2023-05-04T12:44:08.096Z,16.39
2023-05-04T12:46:21.708Z,16.06
2023-05-04T12:48:33.740Z,16.39
2023-05-04T12:50:45.803Z,16.39
2023-05-04T12:52:57.884Z,18.32
2023-05-04T12:55:09.990Z,15.74
2023-05-04T12:57:22.950Z,18.96
2023-05-04T12:59:36.530Z,15.42
2023-05-04T13:01:48.672Z,16.06
2023-05-04T13:03:59.815Z,13.16
2023-05-04T13:06:11.926Z,15.10
2023-05-04T13:08:24.988Z,16.06
2023-05-04T13:10:39.081Z,19.29
2023-05-04T13:12:52.174Z,14.78
2023-05-04T13:15:04.318Z,15.74
2023-05-04T13:17:16.316Z,18.00
2023-05-04T13:19:29.870Z,15.74
2023-05-04T13:21:41.949Z,15.74
2023-05-04T13:23:54.920Z,17.35
2023-05-04T13:26:06.193Z,13.81
2023-05-04T13:28:18.313Z,16.06
2023-05-04T13:30:33.895Z,16.06
2023-05-04T13:32:45.993Z,12.84
2023-05-04T13:35:00.019Z,15.10
2023-05-04T13:37:13.646Z,15.74
2023-05-04T13:39:26.722Z,12.20
2023-05-04T13:41:40.315Z,15.42
2023-05-04T13:43:54.428Z,12.84
2023-05-04T13:46:07.551Z,15.42
2023-05-04T13:48:20.586Z,15.74
2023-05-04T13:50:33.726Z,15.74
2023-05-04T13:52:47.616Z,15.74
2023-05-04T13:56:05.531Z,18.00
2023-05-04T13:58:22.001Z,18.96
2023-05-04T14:00:33.224Z,14.78
2023-05-04T14:02:46.439Z,14.13
2023-05-04T14:04:58.936Z,15.74
2023-05-04T14:07:12.062Z,15.74
2023-05-04T14:09:25.622Z,17.68
2023-05-04T14:11:41.176Z,15.74
2023-05-04T14:13:54.748Z,12.52
2023-05-04T14:16:06.858Z,15.74
2023-05-04T14:18:18.977Z,18.00
2023-05-04T14:20:30.980Z,16.06
2023-05-04T14:22:43.155Z,18.32
2023-05-04T14:24:55.157Z,18.32
2023-05-04T14:27:07.230Z,13.16
2023-05-04T14:29:21.207Z,17.68
2023-05-04T14:31:32.430Z,15.10
2023-05-04T14:33:44.471Z,11.87
2023-05-04T14:35:57.461Z,14.78
2023-05-04T14:38:08.627Z,16.39
2023-05-04T14:40:20.739Z,18.32
2023-05-04T14:42:32.816Z,15.42
2023-05-04T14:44:44.892Z,15.10
2023-05-04T14:46:56.972Z,12.20
2023-05-04T14:49:12.504Z,13.49
2023-05-04T14:51:23.121Z,18.00
2023-05-04T14:53:38.588Z,16.39
2023-05-04T14:55:48.320Z,16.06
2023-05-04T14:58:00.400Z,18.96
2023-05-04T15:00:14.946Z,15.42
2023-05-04T15:02:27.031Z,15.74
2023-05-04T15:04:40.544Z,15.10
2023-05-04T15:06:52.681Z,15.10
2023-05-04T15:09:03.822Z,15.10
2023-05-04T15:11:19.302Z,15.74
2023-05-04T15:13:31.072Z,14.78
2023-05-04T15:15:43.110Z,16.71
2023-05-04T15:17:56.190Z,13.16
2023-05-04T15:20:10.227Z,15.74
2023-05-04T15:22:22.762Z,15.42
2023-05-04T15:24:33.955Z,17.68
2023-05-04T15:26:46.996Z,18.32
2023-05-04T15:28:58.936Z,15.74
2023-05-04T15:31:10.476Z,13.49
2023-05-04T15:33:22.510Z,15.42
2023-05-04T15:35:34.633Z,12.52
2023-05-04T15:37:46.706Z,16.06
2023-05-04T15:40:01.711Z,13.49
2023-05-04T15:42:10.866Z,15.74
2023-05-04T15:44:24.437Z,15.74
2023-05-04T15:46:37.602Z,13.49
2023-05-04T15:48:49.633Z,16.06
2023-05-04T15:51:04.102Z,12.52
2023-05-04T15:53:15.300Z,15.74
2023-05-04T15:55:27.387Z,18.32
2023-05-04T15:57:39.529Z,16.06
2023-05-04T15:59:51.570Z,16.71
2023-05-04T16:02:03.669Z,16.71
2023-05-04T16:04:16.693Z,16.06
2023-05-04T16:06:29.678Z,16.39
2023-05-04T16:08:40.887Z,15.74
2023-05-04T16:10:53.946Z,16.06
2023-05-04T16:13:06.043Z,13.49
2023-05-04T16:15:18.099Z,16.06
2023-05-04T16:17:30.182Z,16.06
2023-05-04T16:19:42.282Z,16.39
2023-05-04T16:21:55.315Z,20.25
2023-05-04T16:24:06.408Z,15.42
2023-05-04T16:26:18.512Z,15.42
2023-05-04T16:28:31.553Z,15.42
2023-05-04T16:30:45.613Z,14.45
2023-05-04T16:32:57.269Z,15.10
2023-05-04T16:35:09.287Z,13.49
2023-05-04T16:37:22.256Z,15.10
2023-05-04T16:39:33.743Z,12.52
2023-05-04T16:41:48.246Z,17.35
2023-05-04T16:43:59.434Z,14.45
2023-05-04T16:46:11.519Z,14.78
2023-05-04T16:48:23.607Z,14.45
2023-05-04T16:50:35.653Z,14.78
2023-05-04T16:52:48.731Z,15.10
2023-05-04T16:55:00.820Z,14.78
2023-05-04T16:57:15.763Z,14.45
2023-05-04T16:59:27.481Z,15.10
2023-05-04T17:01:40.494Z,11.87
2023-05-04T17:03:52.130Z,14.13
2023-05-04T17:06:05.543Z,10.91
2023-05-04T17:08:17.612Z,15.10
2023-05-04T17:11:47.253Z,14.13
2023-05-04T17:13:59.465Z,15.10
2023-05-04T17:16:12.591Z,17.03
2023-05-04T17:18:24.677Z,12.84
2023-05-04T17:20:36.731Z,14.78
2023-05-04T17:22:50.320Z,14.13
2023-05-04T17:25:02.363Z,9.94
2023-05-04T17:27:14.448Z,13.81
2023-05-04T17:29:27.416Z,16.06
2023-05-04T17:31:38.637Z,13.49
2023-05-04T17:33:50.683Z,16.39
2023-05-04T17:36:03.764Z,14.13
2023-05-04T17:38:18.213Z,12.84
2023-05-04T17:40:29.467Z,12.20
2023-05-04T17:42:47.522Z,13.16
2023-05-04T17:45:01.997Z,11.87
2023-05-04T17:47:14.670Z,16.39
2023-05-04T17:50:36.667Z,14.13
2023-05-04T17:52:50.249Z,12.52
2023-05-04T17:55:03.851Z,12.20
2023-05-04T17:57:14.444Z,12.20
2023-05-04T17:59:27.575Z,7.69
2023-05-04T18:01:39.635Z,13.49
2023-05-04T18:03:52.766Z,15.74
2023-05-04T18:06:12.647Z,10.59
2023-05-04T18:08:24.357Z,16.06
2023-05-04T18:10:37.961Z,9.62
2023-05-04T18:12:53.553Z,15.42
2023-05-04T18:15:05.133Z,12.20
2023-05-04T18:17:20.755Z,8.65
2023-05-04T18:19:34.427Z,12.84
2023-05-04T18:21:49.401Z,13.16
2023-05-04T18:24:03.022Z,12.52
2023-05-04T18:26:16.414Z,12.20
2023-05-04T18:28:29.177Z,14.13
2023-05-04T18:30:43.209Z,12.84
2023-05-04T18:32:56.768Z,11.87
2023-05-04T18:35:13.939Z,11.23
2023-05-04T18:37:32.097Z,12.52
2023-05-04T18:39:41.551Z,12.52
2023-05-04T18:41:55.117Z,7.36
2023-05-04T18:44:07.236Z,8.33
2023-05-04T18:46:25.561Z,15.10
2023-05-04T18:48:45.278Z,16.06
2023-05-04T18:50:54.464Z,11.55
2023-05-04T18:53:10.066Z,13.49
2023-05-04T18:55:23.686Z,8.01
2023-05-04T18:57:35.744Z,11.87
2023-05-04T18:59:50.255Z,10.26
2023-05-04T19:02:02.959Z,12.52
2023-05-04T19:04:18.589Z,10.91
2023-05-04T19:06:36.639Z,12.84
2023-05-04T19:07:36.587Z,13.81
2023-05-04T19:09:54.707Z,11.87
2023-05-04T19:12:13.689Z,11.87
2023-05-04T19:14:30.237Z,12.84
2023-05-04T19:16:42.452Z,12.52
2023-05-04T19:18:58.054Z,12.20
2023-05-04T19:21:11.672Z,11.23
2023-05-04T19:23:26.131Z,12.20
2023-05-04T19:25:38.805Z,15.74
2023-05-04T19:27:50.878Z,12.84
2023-05-04T19:30:02.977Z,12.84
2023-05-04T19:32:24.298Z,12.52
2023-05-04T19:34:30.138Z,16.06
2023-05-04T19:36:46.569Z,12.84
2023-05-04T19:39:00.386Z,12.84
2023-05-04T19:41:13.405Z,16.39
2023-05-04T19:43:25.571Z,12.52
2023-05-04T19:45:38.602Z,10.26
2023-05-04T19:47:53.102Z,8.33
2023-05-04T19:50:10.272Z,11.23
2023-05-04T19:52:25.852Z,13.49
2023-05-04T19:54:39.422Z,15.74
2023-05-04T19:56:53.060Z,11.23
2023-05-04T19:59:09.565Z,14.78
2023-05-04T20:01:22.300Z,11.23
2023-05-04T20:03:35.212Z,12.20
2023-05-04T20:05:50.797Z,13.49
2023-05-04T20:08:05.140Z,13.16
2023-05-04T20:10:14.957Z,12.52
2023-05-04T20:12:27.056Z,16.06
2023-05-04T20:14:40.618Z,8.33
2023-05-04T20:16:54.670Z,12.20
2023-05-04T20:19:04.811Z,12.20
2023-05-04T20:21:16.884Z,11.87
2023-05-04T20:23:29.851Z,12.84
2023-05-04T20:25:42.539Z,9.30
2023-05-04T20:27:56.136Z,11.55
2023-05-04T20:30:08.459Z,12.20
2023-05-04T20:32:20.400Z,12.20
2023-05-04T20:34:33.358Z,10.26
2023-05-04T20:36:45.418Z,10.91
2023-05-04T20:38:57.510Z,11.87
2023-05-04T20:41:09.641Z,12.52
2023-05-04T20:43:21.670Z,12.20
2023-05-04T20:45:34.712Z,8.33
2023-05-04T20:47:45.894Z,12.84
2023-05-04T20:49:57.943Z,11.55
2023-05-04T20:52:10.089Z,11.87
2023-05-04T20:54:23.073Z,12.84
2023-05-04T20:56:35.166Z,8.33
2023-05-04T20:58:47.253Z,11.55
2023-05-04T21:00:59.338Z,8.65
2023-05-04T21:03:11.517Z,9.62
2023-05-04T21:05:23.498Z,10.26
2023-05-04T21:07:37.066Z,11.87
2023-05-04T21:09:49.149Z,12.20
2023-05-04T21:12:01.804Z,11.87
2023-05-04T21:14:13.349Z,11.55
2023-05-04T21:16:26.398Z,8.01
2023-05-04T21:18:38.467Z,11.55
2023-05-04T21:20:51.190Z,7.69
2023-05-04T21:23:02.611Z,11.23
2023-05-04T21:25:15.613Z,15.10
2023-05-04T21:27:26.774Z,15.74
2023-05-04T21:29:38.850Z,8.33
2023-05-04T21:31:52.023Z,10.91
2023-05-04T21:34:03.008Z,10.91
2023-05-04T21:36:15.112Z,7.04
2023-05-04T21:38:27.158Z,10.26
2023-05-04T21:40:39.232Z,10.26
2023-05-04T21:42:51.336Z,9.62
2023-05-04T21:45:04.300Z,6.40
2023-05-04T21:47:15.504Z,11.23
2023-05-04T21:49:27.571Z,15.10
2023-05-04T21:51:39.629Z,11.55
2023-05-04T21:53:51.726Z,10.59
2023-05-04T21:56:03.820Z,13.49
2023-05-04T21:58:15.918Z,13.49
2023-05-04T22:00:29.966Z,11.55
2023-05-04T22:02:44.550Z,11.23
2023-05-04T22:04:55.128Z,10.59
2023-05-04T22:07:07.204Z,10.91
2023-05-04T22:09:19.324Z,11.23
2023-05-04T22:11:31.360Z,11.23
2023-05-04T22:13:44.393Z,9.94
2023-05-04T22:15:55.512Z,10.91
2023-05-04T22:18:07.679Z,9.30
2023-05-04T22:20:19.708Z,16.39
2023-05-04T22:22:31.750Z,13.81
2023-05-04T22:24:43.823Z,10.59
2023-05-04T22:26:55.991Z,11.23
2023-05-04T22:29:08.073Z,6.07
2023-05-04T22:31:20.504Z,13.81
2023-05-04T22:33:33.500Z,8.65
2023-05-04T22:35:45.590Z,5.75
2023-05-04T22:37:58.707Z,10.26
2023-05-04T22:40:10.768Z,10.59
2023-05-04T22:42:23.865Z,10.59
2023-05-04T22:44:35.914Z,5.43
2023-05-04T22:46:49.869Z,9.94
2023-05-04T22:49:00.066Z,9.62
2023-05-04T22:51:12.164Z,6.07
2023-05-04T22:53:24.265Z,15.42
2023-05-04T22:55:37.824Z,10.59
2023-05-04T22:57:49.887Z,8.65
2023-05-04T23:00:01.987Z,7.04
2023-05-04T23:02:15.096Z,10.59
2023-05-04T23:04:26.138Z,11.23
2023-05-04T23:06:38.222Z,7.04
2023-05-04T23:08:51.579Z,9.94
2023-05-04T23:11:03.648Z,10.26
2023-05-04T23:13:16.660Z,9.30
2023-05-04T23:15:30.262Z,8.97
2023-05-04T23:17:41.454Z,9.62
2023-05-04T23:19:53.485Z,14.13
2023-05-04T23:22:05.580Z,9.94
2023-05-04T23:24:17.637Z,9.94
2023-05-04T23:26:29.843Z,12.84
2023-05-04T23:28:41.869Z,10.59
2023-05-04T23:30:53.954Z,9.94
2023-05-04T23:33:06.081Z,10.91
2023-05-04T23:35:19.009Z,8.33
2023-05-04T23:37:30.219Z,10.59
2023-05-04T23:39:43.279Z,10.91
2023-05-04T23:41:56.270Z,9.62
2023-05-04T23:44:08.315Z,9.62
2023-05-04T23:46:19.484Z,10.26
2023-05-04T23:48:32.537Z,9.30
2023-05-04T23:50:43.661Z,9.94
2023-05-04T23:52:55.738Z,5.43
2023-05-04T23:55:08.824Z,9.62
2023-05-04T23:57:20.908Z,9.94
2023-05-04T23:59:33.022Z,9.30
